Time;durP1;ratioP1;P1;durP2;ratioP2;P2;SDS_P1;SDS_P2;PMS_P1;PMS_P2;Temp;Humidity;BMP_temperature;BMP_pressure;BME280_temperature;BME280_humidity;BME280_pressure;Samples;Min_cycle;Max_cycle;Signal;HPM_P1;HPM_P2
2023/11/07 00:01:43;;;;;;;;;;;;;;;;;;5052403;28;5048;-69
2023/11/07 00:04:08;;;;;;;;;;;;;;;;;;5063348;28;5041;-69
2023/11/07 00:06:43;;;;;;;;;;;;;;;;;;5052114;28;4541;-70
2023/11/07 00:09:08;;;;;;;;;;;;;;;;;;5052617;28;4455;-69
2023/11/07 00:11:34;;;;;;;;;;;;;;;;;;5055015;28;1223;-69
2023/11/07 00:13:59;;;;;;;;;;;;;;;;;;5057523;28;4667;-69
2023/11/07 00:16:27;;;;;;;;;;;;;;;;;;5062533;28;5001;-69
2023/11/07 00:18:52;;;;;;;;;;;;;;;;;;5074954;28;4665;-69
2023/11/07 00:21:18;;;;;;;;;;;;;;;;;;5085899;28;4989;-69
2023/11/07 00:26:53;;;;;;;;;;;;;;;;;;5071403;28;4724;-69
2023/11/07 00:29:35;;;;;;;;;;;;;;;;;;5073095;28;4622;-68
2023/11/07 00:32:01;;;;;;;;;;;;;;;;;;5072496;28;4648;-69
2023/11/07 00:34:27;;;;;;;;;;;;;;;;;;5049024;28;4859;-68
2023/11/07 00:36:53;;;;;;;;;;;;;;;;;;5068606;28;5075;-69
2023/11/07 00:39:18;;;;;;;;;;;;;;;;;;5068691;28;5091;-68
2023/11/07 00:41:43;;;;;;;;;;;;;;;;;;5068055;28;1269;-68
2023/11/07 00:44:09;;;;;;;;;;;;;;;;;;5072102;28;4419;-68
2023/11/07 00:46:34;;;;;;;;;;;;;;;;;;5048247;28;4993;-68
2023/11/07 00:48:59;;;;;;;;;;;;;;;;;;5092091;28;4430;-68
2023/11/07 00:51:25;;;;;;;;;;;;;;;;;;5049653;28;5010;-68
2023/11/07 00:53:51;;;;;;;;;;;;;;;;;;5070884;28;1172;-69
2023/11/07 01:05:24;;;;;;;;;;;;;;;;;;5073796;28;4566;-70
2023/11/07 01:08:00;;;;;;;;;;;;;;;;;;5059072;28;5019;-70
2023/11/07 01:10:26;;;;;;;;;;;;;;;;;;5054796;28;4561;-70
2023/11/07 01:12:52;;;;;;;;;;;;;;;;;;5068823;28;5120;-70
2023/11/07 01:15:19;;;;;;;;;;;;;;;;;;5048015;28;5349;-69
2023/11/07 01:17:44;;;;;;;;;;;;;;;;;;5045600;28;1328;-70
2023/11/07 01:20:10;;;;;;;;;;;;;;;;;;5044911;28;4938;-70
2023/11/07 01:22:36;;;;;;;;;;;;;;;;;;5043614;28;4938;-69
2023/11/07 01:25:01;;;;;;;;;;;;;;;;;;5047697;28;5048;-69
2023/11/07 01:27:27;;;;;;;;;;;;;;;;;;5046058;28;4695;-69
2023/11/07 01:30:04;;;;;;;;;;;;;;;;;;5048066;28;4466;-70
2023/11/07 01:32:44;;;;;;;;;;;;;;;;;;5050900;28;4641;-69
2023/11/07 01:35:09;;;;;;;;;;;;;;;;;;5050065;28;4629;-69
2023/11/07 01:37:35;;;;;;;;;;;;;;;;;;5053200;28;5211;-69
2023/11/07 01:40:01;;;;;;;;;;;;;;;;;;5053066;28;4633;-69
2023/11/07 01:42:26;;;;;;;;;;;;;;;;;;5046968;28;4452;-69
2023/11/07 01:44:52;;;;;;;;;;;;;;;;;;5049992;28;1938;-70
2023/11/07 01:47:18;;;;;;;;;;;;;;;;;;5050833;28;4409;-70
2023/11/07 01:49:53;;;;;;;;;;;;;;;;;;5051598;28;5031;-70
2023/11/07 01:52:18;;;;;;;;;;;;;;;;;;5047796;28;4658;-70
2023/11/07 01:54:47;;;;;;;;;;;;;;;;;;5046057;28;5061;-70
2023/11/07 01:57:12;;;;;;;;;;;;;;;;;;5053580;28;4623;-69
2023/11/07 01:59:38;;;;;;;;;;;;;;;;;;5050505;28;1081;-69
2023/11/07 02:02:06;;;;;;;;;;;;;;;;;;5027946;28;4483;-70
2023/11/07 02:04:32;;;;;;;;;;;;;;;;;;5044953;28;5325;-70
2023/11/07 02:07:06;;;;;;;;;;;;;;;;;;5045705;28;5168;-69
2023/11/07 02:09:32;;;;;;;;;;;;;;;;;;5046452;28;4447;-70
2023/11/07 02:11:57;;;;;;;;;;;;;;;;;;5043680;28;4867;-69
2023/11/07 02:14:29;;;;;;;;;;;;;;;;;;5043874;28;1979;-70
2023/11/07 02:17:01;;;;;;;;;;;;;;;;;;5058785;28;4484;-71
2023/11/07 02:19:29;;;;;;;;;;;;;;;;;;5047475;28;5066;-70
2023/11/07 02:21:57;;;;;;;;;;;;;;;;;;5063664;28;4637;-70
2023/11/07 02:24:23;;;;;;;;;;;;;;;;;;5038790;28;5984;-70
2023/11/07 02:26:52;;;;;;;;;;;;;;;;;;5057789;28;1910;-70
2023/11/07 02:29:52;;;;;;;;;;;;;;;;;;5067742;28;5121;-70
2023/11/07 02:32:17;;;;;;;;;;;;;;;;;;5071750;28;5060;-70
2023/11/07 02:34:43;;;;;;;;;;;;;;;;;;5072180;28;4399;-70
2023/11/07 02:37:08;;;;;;;;;;;;;;;;;;5069974;28;4972;-70
2023/11/07 02:39:34;;;;;;;;;;;;;;;;;;5068387;28;4451;-69
2023/11/07 02:45:03;;;;;;;;;;;;;;;;;;5069861;28;4492;-69
2023/11/07 02:47:28;;;;;;;;;;;;;;;;;;5073957;28;1219;-70
2023/11/07 02:49:53;;;;;;;;;;;;;;;;;;5071514;28;4805;-69
2023/11/07 02:52:20;;;;;;;;;;;;;;;;;;5048054;28;5071;-67
2023/11/07 02:54:46;;;;;;;;;;;;;;;;;;5068506;28;5627;-69
2023/11/07 02:57:12;;;;;;;;;;;;;;;;;;5050536;28;5162;-68
2023/11/07 02:59:37;;;;;;;;;;;;;;;;;;5051386;28;2007;-69
2023/11/07 03:05:06;;;;;;;;;;;;;;;;;;5069734;28;4464;-69
2023/11/07 03:07:32;;;;;;;;;;;;;;;;;;5069141;28;5027;-69
2023/11/07 03:09:58;;;;;;;;;;;;;;;;;;5051002;28;5551;-69
2023/11/07 03:12:23;;;;;;;;;;;;;;;;;;5070530;28;4914;-69
2023/11/07 03:14:48;;;;;;;;;;;;;;;;;;5051290;28;1143;-69
2023/11/07 03:17:21;;;;;;;;;;;;;;;;;;5071819;28;4961;-69
2023/11/07 03:19:51;;;;;;;;;;;;;;;;;;5073012;28;5039;-69
2023/11/07 03:22:51;;;;;;;;;;;;;;;;;;5058294;28;4810;-69
2023/11/07 03:25:16;;;;;;;;;;;;;;;;;;5071263;28;4568;-69
2023/11/07 03:27:42;;;;;;;;;;;;;;;;;;5073600;28;5123;-69
2023/11/07 03:30:08;;;;;;;;;;;;;;;;;;5058554;28;4983;-68
2023/11/07 03:32:33;;;;;;;;;;;;;;;;;;5072481;28;1077;-68
2023/11/07 03:34:58;;;;;;;;;;;;;;;;;;5055546;28;4918;-68
2023/11/07 03:37:24;;;;;;;;;;;;;;;;;;5076766;28;4437;-68
2023/11/07 03:39:49;;;;;;;;;;;;;;;;;;5041881;28;4466;-69
2023/11/07 03:42:15;;;;;;;;;;;;;;;;;;5051369;28;4494;-69
2023/11/07 03:44:40;;;;;;;;;;;;;;;;;;5073471;28;1259;-69
2023/11/07 03:47:05;;;;;;;;;;;;;;;;;;5052362;28;5085;-69
2023/11/07 03:49:31;;;;;;;;;;;;;;;;;;5069195;28;5123;-69
2023/11/07 03:51:56;;;;;;;;;;;;;;;;;;5068063;28;4607;-69
2023/11/07 03:54:23;;;;;;;;;;;;;;;;;;5067638;28;5554;-69
2023/11/07 03:56:55;;;;;;;;;;;;;;;;;;5051849;28;1959;-69
2023/11/07 03:59:20;;;;;;;;;;;;;;;;;;5068145;28;4415;-69
2023/11/07 04:01:45;;;;;;;;;;;;;;;;;;5069127;28;4470;-70
2023/11/07 04:04:11;;;;;;;;;;;;;;;;;;5068814;28;4968;-70
2023/11/07 04:06:36;;;;;;;;;;;;;;;;;;5069706;28;6141;-70
2023/11/07 04:09:01;;;;;;;;;;;;;;;;;;5068854;28;5092;-69
2023/11/07 04:11:27;;;;;;;;;;;;;;;;;;5080879;28;1163;-69
2023/11/07 04:13:52;;;;;;;;;;;;;;;;;;5070865;28;5045;-69
2023/11/07 04:16:18;;;;;;;;;;;;;;;;;;5049489;28;5044;-69
2023/11/07 04:18:44;;;;;;;;;;;;;;;;;;5049747;28;4653;-69
2023/11/07 04:21:10;;;;;;;;;;;;;;;;;;5056456;28;4482;-69
2023/11/07 04:23:35;;;;;;;;;;;;;;;;;;5054810;28;1081;-69
2023/11/07 04:26:02;;;;;;;;;;;;;;;;;;5055769;28;4847;-70
2023/11/07 04:28:41;;;;;;;;;;;;;;;;;;5055116;28;4464;-69
2023/11/07 04:31:07;;;;;;;;;;;;;;;;;;5053057;28;5062;-69
2023/11/07 04:33:33;;;;;;;;;;;;;;;;;;5053078;28;4854;-69
2023/11/07 04:36:00;;;;;;;;;;;;;;;;;;5049016;28;4885;-70
2023/11/07 04:38:26;;;;;;;;;;;;;;;;;;5048214;28;1144;-69
2023/11/07 04:40:51;;;;;;;;;;;;;;;;;;5063730;28;5005;-69
2023/11/07 04:43:17;;;;;;;;;;;;;;;;;;5046899;28;4698;-69
2023/11/07 04:45:43;;;;;;;;;;;;;;;;;;5046576;28;5254;-70
2023/11/07 04:48:10;;;;;;;;;;;;;;;;;;5052945;28;4849;-70
2023/11/07 04:50:36;;;;;;;;;;;;;;;;;;5045649;28;1190;-70
2023/11/07 04:53:04;;;;;;;;;;;;;;;;;;5057200;28;5202;-70
2023/11/07 04:55:29;;;;;;;;;;;;;;;;;;5049314;28;5054;-70
2023/11/07 05:04:00;;;;;;;;;;;;;;;;;;5055184;28;5061;-69
2023/11/07 05:06:25;;;;;;;;;;;;;;;;;;5053385;28;4968;-69
2023/11/07 05:11:54;;;;;;;;;;;;;;;;;;5052147;28;4925;-69
2023/11/07 05:14:19;;;;;;;;;;;;;;;;;;5063981;28;1122;-69
2023/11/07 05:16:45;;;;;;;;;;;;;;;;;;5101782;28;4998;-69
2023/11/07 05:19:11;;;;;;;;;;;;;;;;;;5115313;28;5024;-69
2023/11/07 05:21:37;;;;;;;;;;;;;;;;;;5079376;28;4668;-68
2023/11/07 05:24:03;;;;;;;;;;;;;;;;;;5114736;28;4435;-68
2023/11/07 05:26:29;;;;;;;;;;;;;;;;;;5080269;28;1910;-68
2023/11/07 05:28:55;;;;;;;;;;;;;;;;;;5115134;28;4969;-68
2023/11/07 05:31:20;;;;;;;;;;;;;;;;;;5115225;28;4999;-68
2023/11/07 05:33:45;;;;;;;;;;;;;;;;;;5115410;28;5017;-69
2023/11/07 05:36:11;;;;;;;;;;;;;;;;;;5096666;28;4462;-69
2023/11/07 05:38:36;;;;;;;;;;;;;;;;;;5102729;28;1034;-68
2023/11/07 05:44:06;;;;;;;;;;;;;;;;;;5073987;28;4465;-67
2023/11/07 05:46:32;;;;;;;;;;;;;;;;;;5081001;28;5015;-67
2023/11/07 05:48:57;;;;;;;;;;;;;;;;;;5099414;28;4884;-68
2023/11/07 05:51:23;;;;;;;;;;;;;;;;;;5073678;28;4833;-68
2023/11/07 05:59:54;;;;;;;;;;;;;;;;;;5074520;28;598;-69
2023/11/07 06:02:20;;;;;;;;;;;;;;;;;;5054127;28;4631;-68
2023/11/07 06:04:46;;;;;;;;;;;;;;;;;;5056030;28;5001;-69
2023/11/07 06:07:11;;;;;;;;;;;;;;;;;;5073899;28;4580;-69
2023/11/07 06:12:45;;;;;;;;;;;;;;;;;;5072841;28;4624;-70
2023/11/07 06:15:10;;;;;;;;;;;;;;;;;;5068669;28;4654;-68
2023/11/07 06:17:47;;;;;;;;;;;;;;;;;;5103902;28;2370;-68
2023/11/07 06:20:13;;;;;;;;;;;;;;;;;;5073513;28;5033;-68
2023/11/07 06:22:38;;;;;;;;;;;;;;;;;;5052871;28;4488;-68
2023/11/07 06:25:04;;;;;;;;;;;;;;;;;;5072241;28;5084;-68
2023/11/07 06:27:30;;;;;;;;;;;;;;;;;;5061050;28;5839;-68
2023/11/07 06:29:58;;;;;;;;;;;;;;;;;;5072995;28;4493;-68
2023/11/07 06:32:23;;;;;;;;;;;;;;;;;;5071956;28;4724;-68
2023/11/07 06:34:49;;;;;;;;;;;;;;;;;;5071775;28;4857;-67
2023/11/07 06:37:14;;;;;;;;;;;;;;;;;;5074052;28;5028;-67
2023/11/07 06:39:39;;;;;;;;;;;;;;;;;;5076213;28;4716;-67
2023/11/07 06:42:05;;;;;;;;;;;;;;;;;;5085773;28;4529;-68
2023/11/07 06:44:30;;;;;;;;;;;;;;;;;;5060781;28;3526;-65
2023/11/07 06:46:56;;;;;;;;;;;;;;;;;;5075962;28;5071;-65
2023/11/07 06:55:35;;;;;;;;;;;;;;;;;;5082197;28;4526;-65
2023/11/07 06:58:18;;;;;;;;;;;;;;;;;;5074306;28;5019;-65
2023/11/07 07:00:44;;;;;;;;;;;;;;;;;;5080516;28;4691;-65
2023/11/07 07:03:10;;;;;;;;;;;;;;;;;;5053156;28;5285;-66
2023/11/07 07:05:35;;;;;;;;;;;;;;;;;;5073822;28;2297;-66
2023/11/07 07:08:01;;;;;;;;;;;;;;;;;;5055062;28;5238;-64
2023/11/07 07:10:26;;;;;;;;;;;;;;;;;;5071008;28;5014;-65
2023/11/07 07:12:52;;;;;;;;;;;;;;;;;;5072768;28;6079;-64
2023/11/07 07:15:17;;;;;;;;;;;;;;;;;;5071413;28;4955;-65
2023/11/07 07:17:42;;;;;;;;;;;;;;;;;;5066894;28;1280;-65
2023/11/07 07:20:13;;;;;;;;;;;;;;;;;;5050926;28;4697;-65
2023/11/07 07:22:39;;;;;;;;;;;;;;;;;;5068911;28;5014;-65
2023/11/07 07:25:07;;;;;;;;;;;;;;;;;;5070760;28;5081;-65
2023/11/07 07:27:34;;;;;;;;;;;;;;;;;;5069364;28;4673;-65
2023/11/07 07:29:59;;;;;;;;;;;;;;;;;;5073249;28;5399;-64
2023/11/07 07:32:26;;;;;;;;;;;;;;;;;;5070888;28;1255;-65
2023/11/07 07:34:52;;;;;;;;;;;;;;;;;;5054315;28;4546;-65
2023/11/07 07:37:20;;;;;;;;;;;;;;;;;;5069291;28;5020;-65
2023/11/07 07:39:46;;;;;;;;;;;;;;;;;;5070044;28;5030;-66
2023/11/07 07:42:11;;;;;;;;;;;;;;;;;;5052435;28;4491;-67
2023/11/07 07:44:48;;;;;;;;;;;;;;;;;;5074955;28;974;-66
2023/11/07 07:47:15;;;;;;;;;;;;;;;;;;5080422;28;4444;-66
2023/11/07 07:49:41;;;;;;;;;;;;;;;;;;5058851;28;4955;-66
2023/11/07 07:52:22;;;;;;;;;;;;;;;;;;5075088;28;4485;-65
2023/11/07 07:55:22;;;;;;;;;;;;;;;;;;5069802;28;5004;-65
2023/11/07 07:57:48;;;;;;;;;;;;;;;;;;5071491;28;4538;-65
2023/11/07 08:00:14;;;;;;;;;;;;;;;;;;5070673;28;4864;-65
2023/11/07 08:02:45;;;;;;;;;;;;;;;;;;5071307;28;1041;-66
2023/11/07 08:05:14;;;;;;;;;;;;;;;;;;5048464;28;4522;-65
2023/11/07 08:07:39;;;;;;;;;;;;;;;;;;5066803;28;5058;-65
2023/11/07 08:10:09;;;;;;;;;;;;;;;;;;5071863;28;4488;-65
2023/11/07 08:12:35;;;;;;;;;;;;;;;;;;5086223;28;4740;-66
2023/11/07 08:15:02;;;;;;;;;;;;;;;;;;5073043;28;5020;-65
2023/11/07 08:17:27;;;;;;;;;;;;;;;;;;5071440;28;1316;-64
2023/11/07 08:19:53;;;;;;;;;;;;;;;;;;5087033;28;4988;-65
2023/11/07 08:22:18;;;;;;;;;;;;;;;;;;5072725;28;5201;-65
2023/11/07 08:24:43;;;;;;;;;;;;;;;;;;5072638;28;4474;-65
2023/11/07 08:27:10;;;;;;;;;;;;;;;;;;5056908;28;5156;-66
2023/11/07 08:32:42;;;;;;;;;;;;;;;;;;5073349;28;4611;-65
2023/11/07 08:35:07;;;;;;;;;;;;;;;;;;5072029;28;5047;-66
2023/11/07 08:37:34;;;;;;;;;;;;;;;;;;5071536;28;5051;-66
2023/11/07 08:40:00;;;;;;;;;;;;;;;;;;5100362;28;4993;-67
2023/11/07 08:42:25;;;;;;;;;;;;;;;;;;5095221;28;5911;-67
2023/11/07 08:44:50;;;;;;;;;;;;;;;;;;5063502;28;1063;-68
2023/11/07 08:47:18;;;;;;;;;;;;;;;;;;5054285;28;4522;-67
2023/11/07 08:49:43;;;;;;;;;;;;;;;;;;5058295;28;4469;-64
2023/11/07 08:52:08;;;;;;;;;;;;;;;;;;5085768;28;5201;-64
2023/11/07 08:54:36;;;;;;;;;;;;;;;;;;5068243;28;5032;-66
2023/11/07 09:00:07;;;;;;;;;;;;;;;;;;5078276;28;4598;-66
2023/11/07 09:02:32;;;;;;;;;;;;;;;;;;5064317;28;1358;-63
2023/11/07 09:04:58;;;;;;;;;;;;;;;;;;5077238;28;4959;-63
2023/11/07 09:07:23;;;;;;;;;;;;;;;;;;5092035;28;5134;-63
2023/11/07 09:09:48;;;;;;;;;;;;;;;;;;5090644;28;4487;-62
2023/11/07 09:12:13;;;;;;;;;;;;;;;;;;5085959;28;4825;-70
2023/11/07 09:14:39;;;;;;;;;;;;;;;;;;5087662;28;1123;-62
2023/11/07 09:17:05;;;;;;;;;;;;;;;;;;5076552;28;4950;-62
2023/11/07 09:19:30;;;;;;;;;;;;;;;;;;5071868;28;4457;-62
2023/11/07 09:21:56;;;;;;;;;;;;;;;;;;5075231;28;4431;-62
2023/11/07 09:24:21;;;;;;;;;;;;;;;;;;5053389;28;5294;-65
2023/11/07 09:26:49;;;;;;;;;;;;;;;;;;5072933;28;2923;-62
2023/11/07 09:29:16;;;;;;;;;;;;;;;;;;5071467;28;5660;-63
2023/11/07 09:31:50;;;;;;;;;;;;;;;;;;5061138;28;5240;-63
2023/11/07 09:34:16;;;;;;;;;;;;;;;;;;5067087;28;5051;-63
2023/11/07 09:36:41;;;;;;;;;;;;;;;;;;5071075;28;4546;-63
2023/11/07 09:39:07;;;;;;;;;;;;;;;;;;5061972;28;5017;-63
2023/11/07 09:41:33;;;;;;;;;;;;;;;;;;5065546;28;1099;-65
2023/11/07 09:43:59;;;;;;;;;;;;;;;;;;5070714;28;5357;-63
2023/11/07 09:46:25;;;;;;;;;;;;;;;;;;5063443;28;5534;-63
2023/11/07 09:48:51;;;;;;;;;;;;;;;;;;5057918;28;4554;-61
2023/11/07 09:51:17;;;;;;;;;;;;;;;;;;5080888;28;5013;-62
2023/11/07 09:53:43;;;;;;;;;;;;;;;;;;5053116;28;3123;-63
2023/11/07 09:56:10;;;;;;;;;;;;;;;;;;5067523;28;5127;-65
2023/11/07 09:58:35;;;;;;;;;;;;;;;;;;5056222;28;6205;-64
2023/11/07 10:01:01;;;;;;;;;;;;;;;;;;5063174;28;5071;-65
2023/11/07 10:03:26;;;;;;;;;;;;;;;;;;5052609;28;4983;-62
2023/11/07 10:08:55;;;;;;;;;;;;;;;;;;5069768;28;4919;-63
2023/11/07 10:11:20;;;;;;;;;;;;;;;;;;5052553;28;2088;-62
2023/11/07 10:14:02;;;;;;;;;;;;;;;;;;5075539;28;4653;-61
2023/11/07 10:19:38;;;;;;;;;;;;;;;;;;5067343;28;4688;-59
2023/11/07 10:22:34;;;;;;;;;;;;;;;;;;5066942;28;4614;-60
2023/11/07 10:25:11;;;;;;;;;;;;;;;;;;5076973;28;4548;-60
2023/11/07 10:27:36;;;;;;;;;;;;;;;;;;5072620;28;5650;-60
2023/11/07 10:30:04;;;;;;;;;;;;;;;;;;5072700;28;4929;-60
2023/11/07 10:32:43;;;;;;;;;;;;;;;;;;5067178;28;1728;-60
2023/11/07 10:35:08;;;;;;;;;;;;;;;;;;5071170;28;4411;-60
2023/11/07 10:37:36;;;;;;;;;;;;;;;;;;5075870;28;4994;-59
2023/11/07 10:40:02;;;;;;;;;;;;;;;;;;5069534;28;5002;-60
2023/11/07 10:42:29;;;;;;;;;;;;;;;;;;5069104;28;5875;-59
2023/11/07 10:44:59;;;;;;;;;;;;;;;;;;5068487;28;1146;-59
2023/11/07 10:47:24;;;;;;;;;;;;;;;;;;5078786;28;5177;-59
2023/11/07 10:49:51;;;;;;;;;;;;;;;;;;5077798;28;5049;-60
2023/11/07 10:52:17;;;;;;;;;;;;;;;;;;5091567;28;4755;-60
2023/11/07 10:54:43;;;;;;;;;;;;;;;;;;5057209;28;5008;-59
2023/11/07 10:57:43;;;;;;;;;;;;;;;;;;5072872;28;5705;-59
2023/11/07 11:03:11;;;;;;;;;;;;;;;;;;5068043;28;5062;-60
2023/11/07 11:05:37;;;;;;;;;;;;;;;;;;5066029;28;1991;-59
2023/11/07 11:08:04;;;;;;;;;;;;;;;;;;5054148;28;5091;-59
2023/11/07 11:13:46;;;;;;;;;;;;;;;;;;5084164;28;5176;-60
2023/11/07 11:16:46;;;;;;;;;;;;;;;;;;5074945;28;5260;-63
2023/11/07 11:19:19;;;;;;;;;;;;;;;;;;5067794;28;4820;-64
2023/11/07 11:21:54;;;;;;;;;;;;;;;;;;5072082;28;4662;-64
2023/11/07 11:24:35;;;;;;;;;;;;;;;;;;5078910;28;5201;-64
2023/11/07 11:27:07;;;;;;;;;;;;;;;;;;5085399;28;4631;-65
2023/11/07 11:29:32;;;;;;;;;;;;;;;;;;5072082;28;4777;-59
2023/11/07 11:35:13;;;;;;;;;;;;;;;;;;5076632;28;5067;-60
2023/11/07 11:38:01;;;;;;;;;;;;;;;;;;5072372;28;5420;-59
2023/11/07 11:40:59;;;;;;;;;;;;;;;;;;5065281;28;4472;-59
2023/11/07 11:43:31;;;;;;;;;;;;;;;;;;5074129;28;4496;-60
2023/11/07 11:46:00;;;;;;;;;;;;;;;;;;5076761;28;5080;-61
2023/11/07 11:48:49;;;;;;;;;;;;;;;;;;5070804;28;5178;-60
2023/11/07 11:51:46;;;;;;;;;;;;;;;;;;5084157;28;4488;-60
2023/11/07 11:54:14;;;;;;;;;;;;;;;;;;5070008;28;4518;-60
2023/11/07 11:56:49;;;;;;;;;;;;;;;;;;5078018;28;2849;-60
2023/11/07 11:59:25;;;;;;;;;;;;;;;;;;5092671;28;4407;-60
2023/11/07 12:01:53;;;;;;;;;;;;;;;;;;5092670;28;5257;-60
2023/11/07 12:04:35;;;;;;;;;;;;;;;;;;5073904;28;4743;-60
2023/11/07 12:07:07;;;;;;;;;;;;;;;;;;5057345;28;4733;-67
2023/11/07 12:09:44;;;;;;;;;;;;;;;;;;5082738;28;4726;-70
2023/11/07 12:12:09;;;;;;;;;;;;;;;;;;5084361;28;5241;-70
2023/11/07 12:14:54;;;;;;;;;;;;;;;;;;5085548;28;1312;-77
2023/11/07 12:17:21;;;;;;;;;;;;;;;;;;5074216;28;5089;-61
2023/11/07 12:19:48;;;;;;;;;;;;;;;;;;5068243;28;4587;-68
2023/11/07 12:22:14;;;;;;;;;;;;;;;;;;5065381;28;4927;-70
2023/11/07 12:24:39;;;;;;;;;;;;;;;;;;5067924;28;5075;-70
2023/11/07 12:27:05;;;;;;;;;;;;;;;;;;5054748;28;4553;-70
2023/11/07 12:29:34;;;;;;;;;;;;;;;;;;5055151;28;1304;-69
2023/11/07 12:31:59;;;;;;;;;;;;;;;;;;5097863;28;4678;-66
2023/11/07 12:34:34;;;;;;;;;;;;;;;;;;5064996;28;4657;-66
2023/11/07 12:37:07;;;;;;;;;;;;;;;;;;5085468;28;4527;-70
2023/11/07 12:39:32;;;;;;;;;;;;;;;;;;5076061;28;4963;-75
2023/11/07 12:41:59;;;;;;;;;;;;;;;;;;5087658;28;4657;-66
2023/11/07 12:50:41;;;;;;;;;;;;;;;;;;5076259;28;4572;-65
2023/11/07 12:53:07;;;;;;;;;;;;;;;;;;5072647;28;5036;-67
2023/11/07 12:55:35;;;;;;;;;;;;;;;;;;5071991;28;5019;-63
2023/11/07 12:58:00;;;;;;;;;;;;;;;;;;5080457;28;4514;-65
2023/11/07 13:03:44;;;;;;;;;;;;;;;;;;5089030;28;5010;-69
2023/11/07 13:06:22;;;;;;;;;;;;;;;;;;5063894;28;5258;-70
2023/11/07 13:09:08;;;;;;;;;;;;;;;;;;5075826;28;1088;-70
2023/11/07 13:11:33;;;;;;;;;;;;;;;;;;5075893;28;5407;-71
2023/11/07 13:13:59;;;;;;;;;;;;;;;;;;5074347;28;5010;-69
2023/11/07 13:16:24;;;;;;;;;;;;;;;;;;5070205;28;5258;-66
2023/11/07 13:18:57;;;;;;;;;;;;;;;;;;5067746;28;5072;-71
2023/11/07 13:21:22;;;;;;;;;;;;;;;;;;5056316;28;4606;-67
2023/11/07 13:23:47;;;;;;;;;;;;;;;;;;5071295;28;2983;-74
2023/11/07 13:26:32;;;;;;;;;;;;;;;;;;5073145;28;4633;-66
2023/11/07 13:28:59;;;;;;;;;;;;;;;;;;5073016;28;4424;-71
2023/11/07 13:31:24;;;;;;;;;;;;;;;;;;5060999;28;4871;-71
2023/11/07 13:37:09;;;;;;;;;;;;;;;;;;5095156;28;5167;-64
2023/11/07 13:42:38;;;;;;;;;;;;;;;;;;5084584;28;4507;-70
2023/11/07 13:45:04;;;;;;;;;;;;;;;;;;5085685;28;4466;-68
2023/11/07 13:47:30;;;;;;;;;;;;;;;;;;5072234;28;1906;-68
2023/11/07 13:49:56;;;;;;;;;;;;;;;;;;5067293;28;4897;-68
2023/11/07 13:52:23;;;;;;;;;;;;;;;;;;5071238;28;4995;-64
2023/11/07 13:54:49;;;;;;;;;;;;;;;;;;5066776;28;4534;-65
2023/11/07 13:57:15;;;;;;;;;;;;;;;;;;5066434;28;4587;-66
2023/11/07 13:59:41;;;;;;;;;;;;;;;;;;5069622;28;1102;-67
2023/11/07 14:02:06;;;;;;;;;;;;;;;;;;5074475;28;4981;-67
2023/11/07 14:04:33;;;;;;;;;;;;;;;;;;5077812;28;5137;-78
2023/11/07 14:07:15;;;;;;;;;;;;;;;;;;5082747;28;4522;-77
2023/11/07 14:09:42;;;;;;;;;;;;;;;;;;5079788;28;5096;-75
2023/11/07 14:12:07;;;;;;;;;;;;;;;;;;5061685;28;4737;-71
2023/11/07 14:14:32;;;;;;;;;;;;;;;;;;5066249;28;2890;-65
2023/11/07 14:16:59;;;;;;;;;;;;;;;;;;5076941;28;5015;-64
2023/11/07 14:19:24;;;;;;;;;;;;;;;;;;5068097;28;5117;-64
2023/11/07 14:34:01;;;;;;;;;;;;;;;;;;5072183;28;4728;-71
2023/11/07 14:39:20;;;;;;;;;;;;;;;;;;5078139;28;4962;-61
2023/11/07 14:41:45;;;;;;;;;;;;;;;;;;5055556;28;2518;-62
2023/11/07 14:44:11;;;;;;;;;;;;;;;;;;5070529;28;4495;-60
2023/11/07 14:46:36;;;;;;;;;;;;;;;;;;5073219;28;4413;-60
2023/11/07 14:49:06;;;;;;;;;;;;;;;;;;5071680;28;4942;-60
2023/11/07 14:54:37;;;;;;;;;;;;;;;;;;5074622;28;5010;-60
2023/11/07 15:12:15;;;;;;;;;;;;;;;;;;5075544;28;4526;-61
2023/11/07 15:14:41;;;;;;;;;;;;;;;;;;5075784;28;1527;-59
2023/11/07 15:17:06;;;;;;;;;;;;;;;;;;5056207;28;4470;-60
2023/11/07 15:19:32;;;;;;;;;;;;;;;;;;5074579;28;5006;-60
2023/11/07 15:22:16;;;;;;;;;;;;;;;;;;5076181;28;4475;-59
2023/11/07 15:24:47;;;;;;;;;;;;;;;;;;5068423;28;4814;-59
2023/11/07 15:27:12;;;;;;;;;;;;;;;;;;5068525;28;5040;-58
2023/11/07 15:29:38;;;;;;;;;;;;;;;;;;5051581;28;4894;-59
2023/11/07 15:32:04;;;;;;;;;;;;;;;;;;5067758;28;4974;-59
2023/11/07 15:34:29;;;;;;;;;;;;;;;;;;5050517;28;5158;-59
2023/11/07 15:36:55;;;;;;;;;;;;;;;;;;5067580;28;4987;-60
2023/11/07 15:39:21;;;;;;;;;;;;;;;;;;5072645;28;5093;-58
2023/11/07 15:41:46;;;;;;;;;;;;;;;;;;5053271;28;1857;-59
2023/11/07 15:44:12;;;;;;;;;;;;;;;;;;5071816;28;5000;-59
2023/11/07 15:46:39;;;;;;;;;;;;;;;;;;5075200;28;5103;-58
2023/11/07 15:49:07;;;;;;;;;;;;;;;;;;5054000;28;4981;-59
2023/11/07 15:54:35;;;;;;;;;;;;;;;;;;5075333;28;5086;-60
2023/11/07 15:57:01;;;;;;;;;;;;;;;;;;5072653;28;4535;-59
2023/11/07 15:59:27;;;;;;;;;;;;;;;;;;5056002;28;1113;-59
2023/11/07 16:01:53;;;;;;;;;;;;;;;;;;5056543;28;4628;-60
2023/11/07 16:04:18;;;;;;;;;;;;;;;;;;5073434;28;4986;-59
2023/11/07 16:06:47;;;;;;;;;;;;;;;;;;5073805;28;4509;-59
2023/11/07 16:09:12;;;;;;;;;;;;;;;;;;5078262;28;4821;-59
2023/11/07 16:11:55;;;;;;;;;;;;;;;;;;5074172;28;1182;-59
2023/11/07 16:14:20;;;;;;;;;;;;;;;;;;5073245;28;4994;-59
2023/11/07 16:16:46;;;;;;;;;;;;;;;;;;5072668;28;5020;-57
2023/11/07 16:19:12;;;;;;;;;;;;;;;;;;5071109;28;5015;-68
2023/11/07 16:21:37;;;;;;;;;;;;;;;;;;5071932;28;4661;-68
2023/11/07 16:24:03;;;;;;;;;;;;;;;;;;5068780;28;4670;-68
2023/11/07 16:26:35;;;;;;;;;;;;;;;;;;5070729;28;2464;-68
2023/11/07 16:29:00;;;;;;;;;;;;;;;;;;5071989;28;4927;-68
2023/11/07 16:31:29;;;;;;;;;;;;;;;;;;5072568;28;5164;-68
2023/11/07 16:33:55;;;;;;;;;;;;;;;;;;5079389;28;5034;-68
2023/11/07 16:36:21;;;;;;;;;;;;;;;;;;5075437;28;4443;-68
2023/11/07 16:38:47;;;;;;;;;;;;;;;;;;5056334;28;2226;-68
2023/11/07 16:41:12;;;;;;;;;;;;;;;;;;5074044;28;5157;-68
2023/11/07 16:55:41;;;;;;;;;;;;;;;;;;5075507;28;4572;-69
2023/11/07 17:10:17;;;;;;;;;;;;;;;;;;5072183;28;4681;-68
2023/11/07 17:12:42;;;;;;;;;;;;;;;;;;5074819;28;4478;-68
2023/11/07 17:15:11;;;;;;;;;;;;;;;;;;5053677;28;4938;-68
2023/11/07 17:24:05;;;;;;;;;;;;;;;;;;5055584;28;5069;-69
2023/11/07 17:26:42;;;;;;;;;;;;;;;;;;5058010;28;2685;-69
2023/11/07 17:29:09;;;;;;;;;;;;;;;;;;5067602;28;5002;-62
2023/11/07 17:31:35;;;;;;;;;;;;;;;;;;5064862;28;4821;-65
2023/11/07 17:34:06;;;;;;;;;;;;;;;;;;5084126;28;4499;-64
2023/11/07 17:36:33;;;;;;;;;;;;;;;;;;5085103;28;4988;-61
2023/11/07 17:42:25;;;;;;;;;;;;;;;;;;5052038;28;4473;-61
2023/11/07 17:44:51;;;;;;;;;;;;;;;;;;5052523;28;1198;-60
2023/11/07 17:47:17;;;;;;;;;;;;;;;;;;5067279;28;5019;-61
2023/11/07 17:49:43;;;;;;;;;;;;;;;;;;5060293;28;5205;-61
2023/11/07 17:52:08;;;;;;;;;;;;;;;;;;5052566;28;4518;-61
2023/11/07 17:54:33;;;;;;;;;;;;;;;;;;5051952;28;5186;-60
2023/11/07 17:56:59;;;;;;;;;;;;;;;;;;5051146;28;5796;-60
2023/11/07 18:02:27;;;;;;;;;;;;;;;;;;5050753;28;4574;-61
2023/11/07 18:04:53;;;;;;;;;;;;;;;;;;5045462;28;4652;-60
2023/11/07 18:07:21;;;;;;;;;;;;;;;;;;5058450;28;5136;-61
2023/11/07 18:09:47;;;;;;;;;;;;;;;;;;5062274;28;4689;-60
2023/11/07 18:12:13;;;;;;;;;;;;;;;;;;5047722;28;4859;-60
2023/11/07 18:14:38;;;;;;;;;;;;;;;;;;5059592;28;1166;-61
2023/11/07 18:17:04;;;;;;;;;;;;;;;;;;5060151;28;5034;-60
2023/11/07 18:19:33;;;;;;;;;;;;;;;;;;5051352;28;4927;-60
2023/11/07 18:21:58;;;;;;;;;;;;;;;;;;5046880;28;5050;-60
2023/11/07 18:24:44;;;;;;;;;;;;;;;;;;5073725;28;4491;-61
2023/11/07 18:27:09;;;;;;;;;;;;;;;;;;5084075;28;5543;-63
2023/11/07 18:29:36;;;;;;;;;;;;;;;;;;5114444;28;1083;-63
2023/11/07 18:32:21;;;;;;;;;;;;;;;;;;5072286;28;5074;-64
2023/11/07 18:34:47;;;;;;;;;;;;;;;;;;5073126;28;5007;-63
2023/11/07 18:43:26;;;;;;;;;;;;;;;;;;5071111;28;5198;-63
2023/11/07 18:45:51;;;;;;;;;;;;;;;;;;5089821;28;4467;-62
2023/11/07 18:48:16;;;;;;;;;;;;;;;;;;5094195;28;4991;-63
2023/11/07 18:50:42;;;;;;;;;;;;;;;;;;5056718;28;1156;-63
2023/11/07 18:53:19;;;;;;;;;;;;;;;;;;5054675;28;5067;-64
2023/11/07 18:58:48;;;;;;;;;;;;;;;;;;5065763;28;4484;-63
2023/11/07 19:01:13;;;;;;;;;;;;;;;;;;5066386;28;5043;-63
2023/11/07 19:03:39;;;;;;;;;;;;;;;;;;5047983;28;5047;-64
2023/11/07 19:06:04;;;;;;;;;;;;;;;;;;5075813;28;5189;-64
2023/11/07 19:08:30;;;;;;;;;;;;;;;;;;5102259;28;1175;-63
2023/11/07 19:10:56;;;;;;;;;;;;;;;;;;5052116;28;4673;-63
2023/11/07 19:13:21;;;;;;;;;;;;;;;;;;5073483;28;5285;-62
2023/11/07 19:15:48;;;;;;;;;;;;;;;;;;5080695;28;4459;-63
2023/11/07 19:21:17;;;;;;;;;;;;;;;;;;5068545;28;4624;-64
2023/11/07 19:23:43;;;;;;;;;;;;;;;;;;5077336;28;1032;-63
2023/11/07 19:26:08;;;;;;;;;;;;;;;;;;5051453;28;4988;-62
2023/11/07 19:28:35;;;;;;;;;;;;;;;;;;5073440;28;5023;-63
2023/11/07 19:31:09;;;;;;;;;;;;;;;;;;5077637;28;5108;-63
2023/11/07 19:33:34;;;;;;;;;;;;;;;;;;5052901;28;4979;-63
2023/11/07 19:36:00;;;;;;;;;;;;;;;;;;5071830;28;4634;-63
2023/11/07 19:38:25;;;;;;;;;;;;;;;;;;5067303;28;1112;-63
2023/11/07 19:41:04;;;;;;;;;;;;;;;;;;5078221;28;5153;-61
2023/11/07 19:43:29;;;;;;;;;;;;;;;;;;5075313;28;5137;-60
2023/11/07 19:45:55;;;;;;;;;;;;;;;;;;5081355;28;4985;-60
2023/11/07 19:48:20;;;;;;;;;;;;;;;;;;5087854;28;5043;-68
2023/11/07 19:50:49;;;;;;;;;;;;;;;;;;5072352;28;2590;-68
2023/11/07 19:53:14;;;;;;;;;;;;;;;;;;5067092;28;4461;-68
2023/11/07 19:55:43;;;;;;;;;;;;;;;;;;5079678;28;4383;-68
2023/11/07 19:58:08;;;;;;;;;;;;;;;;;;5054484;28;5082;-68